WetterOnline ( https://www.wetteronline.de )

Wetter aktuell Naudin

Aktuelles Wetter: Goldberg (58m)

6-stündlich | Neueste Meldungen
Ortszeit Temperatur Wetter
Mo, 23.11. 19:00 5.2° C leicht bewölkt
Mo, 23.11. 13:00 7.8° C leicht bewölkt
Mo, 23.11. 7:00 4.0° C fast wolkenlos
Mo, 23.11. 1:00 4.4° C leicht bewölkt
So, 22.11. 19:00 6.3° C wolkig
So, 22.11. 13:00 9.1° C wolkig
So, 22.11. 7:00 7.5° C Regen
So, 22.11. 1:00 7.3° C bewölkt
Ortszeit Temperatur Wetter
Mo, 23.11. 21:00 5.4° C leicht bewölkt
Mo, 23.11. 20:50 5.4° C leicht bewölkt
Mo, 23.11. 20:40 5.5° C leicht bewölkt
Mo, 23.11. 20:30 5.4° C wolkig
Mo, 23.11. 20:20 5.4° C wolkig
Mo, 23.11. 20:10 5.4° C wolkig
Mo, 23.11. 20:00 5.4° C leicht bewölkt
Mo, 23.11. 19:30 6.0° C wolkig
Mo, 23.11. 19:00 5.2° C leicht bewölkt
Mo, 23.11. 18:30 5.1° C wolkenlos
Mo, 23.11. 18:00 5.2° C leicht bewölkt
Ortszeit Relative Feuchte Sichtweite
Mo, 23.11. 19:00 91% 30 km
Mo, 23.11. 13:00 80% 45 km
Mo, 23.11. 7:00 91% 30 km
Mo, 23.11. 1:00 91% 26 km
So, 22.11. 19:00 85% 29 km
So, 22.11. 13:00 82% 50 km
So, 22.11. 7:00 97% 6 km
So, 22.11. 1:00 95% 6 km
Ortszeit Relative Feuchte Sichtweite
Mo, 23.11. 21:00 89% 35 km
Mo, 23.11. 20:50 89% -
Mo, 23.11. 20:40 89% -
Mo, 23.11. 20:30 89% 30 km
Mo, 23.11. 20:20 89% -
Mo, 23.11. 20:10 89% -
Mo, 23.11. 20:00 89% 30 km
Mo, 23.11. 19:30 88% 30 km
Mo, 23.11. 19:00 91% 30 km
Mo, 23.11. 18:30 90% 30 km
Mo, 23.11. 18:00 91% 30 km
Ortszeit Niederschlagsmenge Niederschlagsart
Mo, 23.11. 19:00 0.0 l/m2 in 12 Std. -
Mo, 23.11. 13:00 0.0 l/m2 in 6 Std. -
Mo, 23.11. 7:00 0.1 l/m2 in 12 Std. -
Mo, 23.11. 1:00 0.1 l/m2 in 6 Std. Regen
So, 22.11. 19:00 0.5 l/m2 in 12 Std. Regen
So, 22.11. 13:00 0.5 l/m2 in 6 Std. Regen
So, 22.11. 7:00 1 l/m2 in 12 Std. Regen
So, 22.11. 1:00 0.1 l/m2 in 6 Std. Regen
Ortszeit Niederschlagsmenge Niederschlagsart
Mo, 23.11. 21:00 0.0 l/m2 in 1 Std. -
Mo, 23.11. 20:50 keine Meldung -
Mo, 23.11. 20:40 keine Meldung -
Mo, 23.11. 20:30 0.0 l/m2 in 1 Std. -
Mo, 23.11. 20:20 keine Meldung -
Mo, 23.11. 20:10 keine Meldung -
Mo, 23.11. 20:00 0.0 l/m2 in 1 Std. -
Mo, 23.11. 19:30 0.0 l/m2 in 1 Std. -
Mo, 23.11. 19:00 0.0 l/m2 in 1 Std. -
Mo, 23.11. 18:30 0.0 l/m2 in 1 Std. -
Mo, 23.11. 18:00 0.0 l/m2 in 1 Std. -
Ortszeit Stärke Spitze Richtung
km/h Bft. km/h Grad Sektor
Mo, 23.11. 19:00 13 3 33 260° W
Mo, 23.11. 13:00 18 3 40 270° W
Mo, 23.11. 7:00 17 3 30 250° W
Mo, 23.11. 1:00 15 3 26 250° W
So, 22.11. 19:00 11 2 47 230° SW
So, 22.11. 13:00 22 4 47 270° W
So, 22.11. 7:00 20 4 44 210° SW
So, 22.11. 1:00 22 4 40 220° SW
Ortszeit Stärke Spitze Richtung
km/h Bft. km/h Grad Sektor
Mo, 23.11. 21:00 18 3 25 240° SW
Mo, 23.11. 20:50 18 3 - 240° SW
Mo, 23.11. 20:40 18 3 - 240° SW
Mo, 23.11. 20:30 14 3 22 250° W
Mo, 23.11. 20:20 14 3 - 250° W
Mo, 23.11. 20:10 15 3 - 250° W
Mo, 23.11. 20:00 14 3 22 250° W
Mo, 23.11. 19:30 14 3 22 250° W
Mo, 23.11. 19:00 13 3 19 260° W
Mo, 23.11. 18:30 9 2 19 240° SW
Mo, 23.11. 18:00 13 3 19 240° SW
Ortszeit Untergrenze Bedeckung Gattung
total tief tief mittel hoch
Mo, 23.11. 19:00 810 m 2/8 4/8 - - -
Mo, 23.11. 13:00 600 m 2/8 2/8 - - -
Mo, 23.11. 7:00 900 m 0/8 0/8 - - -
Mo, 23.11. 1:00 3900 m 4/8 4/8 - - -
So, 22.11. 19:00 1380 m 8/8 1/8 - - -
So, 22.11. 13:00 1290 m 7/8 5/8 - - -
So, 22.11. 7:00 180 m 8/8 8/8 - - -
So, 22.11. 1:00 210 m 7/8 8/8 - - -
Ortszeit Bedeckungsgrad in Achtel und Wolkenuntergrenze
Mo, 23.11. 21:00 4(1080m)
Mo, 23.11. 20:50 4(1080m)
Mo, 23.11. 20:40 1(1080m) 3(5400m)
Mo, 23.11. 20:30 3(720m) 4(840m) 6(5400m)
Mo, 23.11. 20:20 3(720m) 4(840m) 6(5400m)
Mo, 23.11. 20:10 5(750m) 5(5400m)
Mo, 23.11. 20:00 1(840m) 3(1020m)
Mo, 23.11. 19:30 1(750m) 6(1080m) 6(7800m)
Mo, 23.11. 19:00 2(810m) 4(1020m)
Mo, 23.11. 18:30 keine Wolken
Mo, 23.11. 18:00 3(6000m)
Ortszeit Luftdruck NN (hPa) Tendenz (hPa in 3 Std.)
Mo, 23.11. 19:00 1026 + 1,1
Mo, 23.11. 13:00 1023 + 1,2
Mo, 23.11. 7:00 1021 + 0,4
Mo, 23.11. 1:00 1021 - 0,4
So, 22.11. 19:00 1021 + 0,9
So, 22.11. 13:00 1019 + 0,5
So, 22.11. 7:00 1019 - 1,0
So, 22.11. 1:00 1020 - 0,9
Ortszeit Luftdruck NN (hPa) Tendenz (hPa in 3 Std.)
Mo, 23.11. 21:00 1027 + 1,2
Mo, 23.11. 20:50 1027 keine Meldung
Mo, 23.11. 20:40 1027 keine Meldung
Mo, 23.11. 20:30 1027 + 1,3
Mo, 23.11. 20:20 1027 keine Meldung
Mo, 23.11. 20:10 1027 keine Meldung
Mo, 23.11. 20:00 1026 + 1,1
Mo, 23.11. 19:30 1026 + 0,9
Mo, 23.11. 19:00 1026 + 1,1
Mo, 23.11. 18:30 1026 + 1,1
Mo, 23.11. 18:00 1025 + 1,0
Ortszeit Schneehöhe (cm)
Mo, 23.11. 19:00 0
Mo, 23.11. 13:00 0
Mo, 23.11. 7:00 0
Mo, 23.11. 1:00 0
So, 22.11. 19:00 0
So, 22.11. 13:00 0
So, 22.11. 7:00 0
So, 22.11. 1:00 0
Ortszeit Schneehöhe (cm)
Mo, 23.11. 21:00 0
Mo, 23.11. 20:50 0
Mo, 23.11. 20:40 0
Mo, 23.11. 20:30 0
Mo, 23.11. 20:20 0
Mo, 23.11. 20:10 0
Mo, 23.11. 20:00 0
Mo, 23.11. 19:30 0
Mo, 23.11. 19:00 0
Mo, 23.11. 18:30 0
Mo, 23.11. 18:00 0
Link zu dieser Seite / Seite empfehlen

Das Wetter in ...